Aérodrome :
LOGIN :

S'inscrire | Disclaimer

   EN    FR    IT 

 










Légende :    VFR   VFR Marginal   IFR   IFR Intensif   IFR Très Intensif
Visi : 
Plafond : 
>= 8 km
>= 3000ft
5 à 8 km
1000 à 3000 ft
1500m à 5 km
500 à 1000 ft
800 à 1500m
200 à 500 ft
< 800m
< 200 ft
Symboles :   Orages  Brouillard  Fortes neiges  Fortes précipitations  Vent > 20 kt
SIGMETs :   Divers  Orages  Givrage  Turbulence  Onde Orograph.  Cendres Volcan.






- Altitude de l'aérodrome : 1302 ft
- Code IATA : GNB


LFLS - Grenoble / St. Geoirs

DERNIER METAR :
  • 171200Z AUTO 23010KT 9999 FEW054 BKN110 BKN140 19/11 Q1016 NOSIG

METARs EXPIRÉS :
  • 171130Z AUTO 21008KT 190V250 9999 FEW042 SCT052 BKN110 18/11 Q1016 NOSIG
  • 171100Z AUTO 23007KT 190V250 9999 FEW054 OVC100 18/11 Q1016 NOSIG
  • 171030Z AUTO 21009KT 190V250 9999 FEW052 BKN100 18/11 Q1016 NOSIG
  • 171000Z AUTO 20008KT 160V230 9999 FEW050 BKN100 BKN150 18/10 Q1016 NOSIG
  • 170930Z AUTO 24003KT 180V350 9999 FEW049 18/11 Q1017 NOSIG

TAF TAF LFLS
Valide du 17 à 09h jusqu'au 18 à 09h UTC


170800Z 1709/1809 VRB02KT CAVOK
BECMG 1710/1712 24010KT
TEMPO 1715/1720 -RA BKN050
BECMG 1722/1724 VRB02KT
TEMPO 1803/1809 -RA BKN060
ATIS : +33 4 76 65 55 89



MET'MAP, la Météo Aéronautique d'un coup d'oeil ! - Copyright ORBIFLY Décembre 2007 - Disclaimer

ORBIFLY MET'MAP TEAM :

Programmation & Développement : Alexandra Zaïnal
Conception & Développement : Baudouin d'Aumeries
Co-Programmation & Développement : Marc-Olivier Méhu
Soutien technique & logistique : Manuel Goepfert

Contact : metmap@orbifly.com




SOURCES & CREDITS :

   NOAA